Terminal Aerodrome Forecast
Issued by NWS Pittsburgh, PA

Current Version | Previous Version | Graphics & Text | Print | Product List | Glossary On
Versions: 1 2 3 4 5 6 7 8 9 10 11 12 13 14 15 16 17 18 19 20 21 22 23 24 25 26 27 28 29 30 31 32 33 34 35 36 37 38
000
FTUS41 KPBZ 221849 AAA
TAFPIT
TAF AMD
KPIT 221849Z 2219/2324 24007KT P6SM SCT020 BKN040
     FM222100 23008KT P6SM VCTS BKN070CB
      TEMPO 2223/2301 VRB10G20KT 5SM TSRA
     FM230200 VRB04KT 5SM BR VCSH BKN025
     FM230500 29005KT P6SM BKN010
     FM230900 32006KT P6SM BKN008
     FM231600 33006KT P6SM SCT040=

USA.gov is the U.S. government's official web portal to all federal, state and local government web resources and services.